createdAt,value
2023-01-17T00:00:44.524Z,17.17
2023-01-17T00:03:17.340Z,17.07
2023-01-17T00:06:07.743Z,16.62
2023-01-17T00:08:58.529Z,16.48
2023-01-17T00:11:31.766Z,18.35
2023-01-17T00:14:04.611Z,21.93
2023-01-17T00:16:37.458Z,24.32
2023-01-17T00:19:28.302Z,24.27
2023-01-17T00:22:19.284Z,25.08
2023-01-17T00:25:09.912Z,29.35
2023-01-17T00:27:41.969Z,22.82
2023-01-17T00:30:14.223Z,20.50
2023-01-17T00:32:46.750Z,22.65
2023-01-17T00:35:19.599Z,19.23
2023-01-17T00:38:06.057Z,19.87
2023-01-17T00:40:40.682Z,19.30
2023-01-17T00:43:33.341Z,18.15
2023-01-17T00:46:24.190Z,18.75
2023-01-17T00:49:15.040Z,19.70
2023-01-17T00:52:06.087Z,20.30
2023-01-17T00:54:57.232Z,18.40
2023-01-17T00:57:48.274Z,19.12
2023-01-17T01:00:39.520Z,18.45
2023-01-17T01:03:31.661Z,18.77
2023-01-17T01:06:24.936Z,19.40
2023-01-17T01:09:15.709Z,18.05
2023-01-17T01:12:07.232Z,18.95
2023-01-17T01:14:57.803Z,19.40
2023-01-17T01:17:48.860Z,19.35
2023-01-17T01:20:39.541Z,20.80
2023-01-17T01:23:30.527Z,20.90
2023-01-17T01:26:23.456Z,19.10
2023-01-17T01:29:14.528Z,21.27
2023-01-17T01:32:05.068Z,21.57
2023-01-17T01:34:37.711Z,20.92
2023-01-17T01:37:11.112Z,21.27
2023-01-17T01:39:44.183Z,20.15
2023-01-17T01:42:18.618Z,21.62
2023-01-17T01:44:54.469Z,21.48
2023-01-17T01:47:32.522Z,21.70
2023-01-17T01:50:09.007Z,20.72
2023-01-17T01:52:46.085Z,22.40
2023-01-17T01:55:25.686Z,21.00
2023-01-17T01:58:03.292Z,21.82
2023-01-17T02:00:41.201Z,23.75
2023-01-17T02:03:18.593Z,20.50
2023-01-17T02:05:51.629Z,22.62
2023-01-17T02:08:25.808Z,21.40
2023-01-17T02:10:58.987Z,23.73
2023-01-17T02:13:31.751Z,22.58
2023-01-17T02:16:12.570Z,23.07
2023-01-17T02:19:12.408Z,22.22
2023-01-17T02:21:59.382Z,25.15
2023-01-17T02:24:48.730Z,22.80
2023-01-17T02:27:55.974Z,25.52
2023-01-17T02:30:37.387Z,23.02
2023-01-17T02:33:17.639Z,22.22
2023-01-17T02:36:11.935Z,23.20
2023-01-17T02:38:49.667Z,22.10
2023-01-17T02:41:32.636Z,22.87
2023-01-17T02:44:06.426Z,21.65
2023-01-17T02:46:54.891Z,21.15
2023-01-17T02:49:30.771Z,22.65
2023-01-17T02:52:38.865Z,22.05
2023-01-17T02:55:19.377Z,25.45
2023-01-17T02:58:13.604Z,28.00
2023-01-17T03:01:10.441Z,25.37
2023-01-17T03:03:56.818Z,24.45
2023-01-17T03:06:43.450Z,25.15
2023-01-17T03:09:18.001Z,36.42
2023-01-17T03:11:50.899Z,38.67
2023-01-17T03:14:24.441Z,40.73
2023-01-17T03:16:58.155Z,33.67
2023-01-17T03:19:31.803Z,29.35
2023-01-17T03:22:04.629Z,25.08
2023-01-17T03:24:37.472Z,24.02
2023-01-17T03:27:10.648Z,22.40
2023-01-17T03:29:43.716Z,23.60
2023-01-17T03:32:16.636Z,20.75
2023-01-17T03:34:51.062Z,18.57
2023-01-17T03:37:24.183Z,20.75
2023-01-17T03:39:58.018Z,20.62
2023-01-17T03:42:31.778Z,18.25
2023-01-17T03:45:04.916Z,18.95
2023-01-17T03:47:38.069Z,18.10
2023-01-17T03:50:13.653Z,17.82
2023-01-17T03:52:47.108Z,16.80
2023-01-17T03:55:20.021Z,14.85
2023-01-17T03:57:53.251Z,15.95
2023-01-17T04:00:26.268Z,17.03
2023-01-17T04:02:59.183Z,14.75
2023-01-17T04:05:32.270Z,15.50
2023-01-17T04:08:06.904Z,14.47
2023-01-17T04:10:40.120Z,15.28
2023-01-17T04:13:13.990Z,14.47
2023-01-17T04:15:49.265Z,15.60
2023-01-17T04:18:24.598Z,16.40
2023-01-17T04:20:57.801Z,16.17
2023-01-17T04:23:30.761Z,20.23
2023-01-17T04:26:03.958Z,17.02
2023-01-17T04:28:37.115Z,17.77
2023-01-17T04:31:12.798Z,16.52
2023-01-17T04:33:46.506Z,14.93
2023-01-17T04:36:19.607Z,15.53
2023-01-17T04:38:52.419Z,16.10
2023-01-17T04:41:26.347Z,15.75
2023-01-17T04:46:32.503Z,16.20
2023-01-17T04:49:05.424Z,17.60
2023-01-17T04:51:38.708Z,15.40
2023-01-17T04:54:11.572Z,16.27
2023-01-17T04:56:45.148Z,14.70
2023-01-17T04:59:18.131Z,16.07
2023-01-17T05:01:51.441Z,16.27
2023-01-17T05:04:24.280Z,18.50
2023-01-17T05:06:57.262Z,15.58
2023-01-17T05:09:30.043Z,15.93
2023-01-17T05:12:04.559Z,17.27
2023-01-17T05:14:37.700Z,15.25
2023-01-17T05:17:11.574Z,18.20
2023-01-17T05:19:44.809Z,16.67
2023-01-17T05:22:18.367Z,17.40
2023-01-17T05:24:51.881Z,15.72
2023-01-17T05:27:24.703Z,14.23
2023-01-17T05:29:58.152Z,17.30
2023-01-17T05:32:31.195Z,17.37
2023-01-17T05:35:04.410Z,16.93
2023-01-17T05:37:37.882Z,15.88
2023-01-17T05:40:12.980Z,16.37
2023-01-17T05:42:54.593Z,22.15
2023-01-17T05:45:30.039Z,18.23
2023-01-17T05:48:03.716Z,18.02
2023-01-17T05:50:39.110Z,18.37
2023-01-17T05:53:17.449Z,16.65
2023-01-17T05:55:50.249Z,16.65
2023-01-17T05:58:24.332Z,18.07
2023-01-17T06:03:29.703Z,16.55
2023-01-17T06:06:03.019Z,19.20
2023-01-17T06:08:36.309Z,17.70
2023-01-17T06:11:09.317Z,16.95
2023-01-17T06:13:42.218Z,18.17
2023-01-17T06:16:15.222Z,19.15
2023-01-17T06:18:48.492Z,21.37
2023-01-17T06:21:21.681Z,19.12
2023-01-17T06:23:56.945Z,19.73
2023-01-17T06:26:29.798Z,17.02
2023-01-17T06:29:03.697Z,18.17
2023-01-17T06:31:37.150Z,20.30
2023-01-17T06:34:10.096Z,18.13
2023-01-17T06:36:43.259Z,18.42
2023-01-17T06:39:16.300Z,18.25
2023-01-17T06:41:49.254Z,20.12
2023-01-17T06:44:22.409Z,19.07
2023-01-17T06:46:55.840Z,18.95
2023-01-17T06:49:28.678Z,22.73
2023-01-17T06:52:01.647Z,19.65
2023-01-17T06:54:35.347Z,20.10
2023-01-17T06:57:08.429Z,19.90
2023-01-17T06:59:41.256Z,19.07
2023-01-17T07:02:14.833Z,20.05
2023-01-17T07:04:47.715Z,19.40
2023-01-17T07:07:21.427Z,19.98
2023-01-17T07:09:54.338Z,17.17
2023-01-17T07:12:27.580Z,17.57
2023-01-17T07:15:02.275Z,19.55
2023-01-17T07:17:36.845Z,20.23
2023-01-17T07:22:46.824Z,18.52
2023-01-17T07:25:20.487Z,16.17
2023-01-17T07:27:58.008Z,19.27
2023-01-17T07:30:31.008Z,18.67
2023-01-17T07:33:04.208Z,17.82
2023-01-17T07:35:37.919Z,17.73
2023-01-17T07:38:20.174Z,18.20
2023-01-17T07:40:53.204Z,18.50
2023-01-17T07:43:26.140Z,17.42
2023-01-17T07:46:01.265Z,17.12
2023-01-17T07:48:33.995Z,16.42
2023-01-17T07:51:07.415Z,18.60
2023-01-17T07:53:40.473Z,18.70
2023-01-17T07:56:14.444Z,16.90
2023-01-17T07:58:48.867Z,19.75
2023-01-17T08:01:21.796Z,18.50
2023-01-17T08:03:55.487Z,17.70
2023-01-17T08:06:29.610Z,18.57
2023-01-17T08:09:03.258Z,18.05
2023-01-17T08:11:36.524Z,21.27
2023-01-17T08:14:10.133Z,23.27
2023-01-17T08:16:43.780Z,19.80
2023-01-17T08:19:17.617Z,20.75
2023-01-17T08:21:51.270Z,26.02
2023-01-17T08:24:24.914Z,19.70
2023-01-17T08:26:58.016Z,27.65
2023-01-17T08:29:31.206Z,21.40
2023-01-17T08:32:04.828Z,20.50
2023-01-17T08:34:38.328Z,19.73
2023-01-17T08:37:11.023Z,19.42
2023-01-17T08:39:44.147Z,17.37
2023-01-17T08:42:17.094Z,21.85
2023-01-17T08:44:51.518Z,18.77
2023-01-17T08:47:25.248Z,18.82
2023-01-17T08:50:00.148Z,23.47
2023-01-17T08:52:33.682Z,20.57
2023-01-17T08:55:09.276Z,18.90
2023-01-17T08:57:42.348Z,17.70
2023-01-17T09:00:15.673Z,17.80
2023-01-17T09:02:48.533Z,17.95
2023-01-17T09:05:21.516Z,20.30
2023-01-17T09:07:56.854Z,19.90
2023-01-17T09:10:29.935Z,20.30
2023-01-17T09:13:02.748Z,19.42
2023-01-17T09:15:35.738Z,19.35
2023-01-17T09:18:09.347Z,18.37
2023-01-17T09:20:42.473Z,18.67
2023-01-17T09:23:15.360Z,19.00
2023-01-17T09:26:00.448Z,18.90
2023-01-17T09:28:35.084Z,19.45
2023-01-17T09:31:10.118Z,16.90
2023-01-17T09:33:43.407Z,16.75
2023-01-17T09:36:16.817Z,16.80
2023-01-17T09:38:50.713Z,18.07
2023-01-17T09:41:51.961Z,18.92
2023-01-17T09:44:41.474Z,17.37
2023-01-17T09:47:34.061Z,17.48
2023-01-17T09:50:27.097Z,18.62
2023-01-17T09:53:22.212Z,20.15
2023-01-17T09:56:07.821Z,17.87
2023-01-17T09:58:54.906Z,21.55
2023-01-17T10:01:36.835Z,19.60
2023-01-17T10:04:23.102Z,19.82
2023-01-17T10:07:29.620Z,19.65
2023-01-17T10:10:36.775Z,18.85
2023-01-17T10:13:43.459Z,18.77
2023-01-17T10:16:42.377Z,19.27
2023-01-17T10:19:40.959Z,18.75
2023-01-17T10:22:36.707Z,18.75
2023-01-17T10:25:34.999Z,17.70
2023-01-17T10:28:26.490Z,19.40
2023-01-17T10:31:15.724Z,20.12
2023-01-17T10:33:52.974Z,19.70
2023-01-17T10:36:29.198Z,17.52
2023-01-17T10:39:24.112Z,19.45
2023-01-17T10:42:10.270Z,20.62
2023-01-17T10:44:50.981Z,19.30
2023-01-17T10:47:27.718Z,20.77
2023-01-17T10:50:02.083Z,20.57
2023-01-17T10:52:59.317Z,22.73
2023-01-17T10:55:53.580Z,21.62
2023-01-17T10:58:27.875Z,20.17
2023-01-17T11:01:19.458Z,19.77
2023-01-17T11:03:55.575Z,19.15
2023-01-17T11:06:31.140Z,19.87
2023-01-17T11:09:05.506Z,20.70
2023-01-17T11:11:46.377Z,19.87
2023-01-17T11:14:24.272Z,17.77
2023-01-17T11:17:06.013Z,18.65
2023-01-17T11:19:39.783Z,18.85
2023-01-17T11:24:56.389Z,20.75
2023-01-17T11:27:35.817Z,19.32
2023-01-17T11:30:22.187Z,19.92
2023-01-17T11:33:09.009Z,18.45
2023-01-17T11:35:46.491Z,17.73
2023-01-17T11:38:24.242Z,19.02
2023-01-17T11:40:58.858Z,19.10
2023-01-17T11:43:32.987Z,20.80
2023-01-17T11:46:19.514Z,18.98
2023-01-17T11:48:56.437Z,18.12
2023-01-17T11:51:43.502Z,18.73
2023-01-17T11:54:38.059Z,22.20
2023-01-17T11:57:25.422Z,20.85
2023-01-17T12:00:08.746Z,21.70
2023-01-17T12:02:59.695Z,21.68
2023-01-17T12:05:53.893Z,21.87
2023-01-17T12:08:55.969Z,19.27
2023-01-17T12:11:36.584Z,19.87
2023-01-17T12:14:35.079Z,18.80
2023-01-17T12:17:30.350Z,20.80
2023-01-17T12:20:12.402Z,19.90
2023-01-17T12:22:58.587Z,20.72
2023-01-17T12:25:55.594Z,20.23
2023-01-17T12:28:45.002Z,20.27
2023-01-17T12:31:46.581Z,22.30
2023-01-17T12:34:42.972Z,20.40
2023-01-17T12:37:29.884Z,19.77
2023-01-17T12:40:24.935Z,17.12
2023-01-17T12:43:24.796Z,18.85
2023-01-17T12:45:58.548Z,20.48
2023-01-17T12:48:36.205Z,20.10
2023-01-17T12:51:40.404Z,20.48
2023-01-17T12:54:39.576Z,18.10
2023-01-17T12:57:24.242Z,18.02
2023-01-17T13:00:04.471Z,20.25
2023-01-17T13:02:48.342Z,22.67
2023-01-17T13:05:46.722Z,23.33
2023-01-17T13:08:44.066Z,21.07
2023-01-17T13:11:28.948Z,20.15
2023-01-17T13:14:03.158Z,19.55
2023-01-17T13:16:42.259Z,17.55
2023-01-17T13:19:40.841Z,16.97
2023-01-17T13:22:17.435Z,19.98
2023-01-17T13:25:04.425Z,19.32
2023-01-17T13:27:51.079Z,22.50
2023-01-17T13:30:49.356Z,22.35
2023-01-17T13:34:01.649Z,21.42
2023-01-17T13:36:58.773Z,19.48
2023-01-17T13:39:36.411Z,18.05
2023-01-17T13:42:33.591Z,18.45
2023-01-17T13:45:12.843Z,18.02
2023-01-17T13:47:45.845Z,19.07
2023-01-17T13:50:44.037Z,19.37
2023-01-17T13:53:39.221Z,17.92
2023-01-17T13:56:32.855Z,21.97
2023-01-17T13:59:09.518Z,22.10
2023-01-17T14:01:53.284Z,21.68
2023-01-17T14:04:27.060Z,19.20
2023-01-17T14:07:01.651Z,22.27
2023-01-17T14:09:43.677Z,24.32
2023-01-17T14:12:26.170Z,19.60
2023-01-17T14:15:01.490Z,23.30
2023-01-17T14:17:59.420Z,18.23
2023-01-17T14:20:45.401Z,17.77
2023-01-17T14:23:40.684Z,16.95
2023-01-17T14:26:28.434Z,17.60
2023-01-17T14:29:22.875Z,17.65
2023-01-17T14:32:02.775Z,19.73
2023-01-17T14:34:36.426Z,16.75
2023-01-17T14:37:40.964Z,18.12
2023-01-17T14:40:25.460Z,19.65
2023-01-17T14:43:03.458Z,18.60
2023-01-17T14:45:37.439Z,18.40
2023-01-17T14:48:17.952Z,21.20
2023-01-17T14:50:54.639Z,21.70
2023-01-17T14:53:32.766Z,22.05
2023-01-17T14:56:19.130Z,21.35
2023-01-17T14:59:16.141Z,21.33
2023-01-17T15:02:07.668Z,19.25
2023-01-17T15:04:35.691Z,17.80
2023-01-17T15:07:08.822Z,18.37
2023-01-17T15:09:43.475Z,22.22
2023-01-17T15:12:16.748Z,19.32
2023-01-17T15:14:50.104Z,18.47
2023-01-17T15:17:27.894Z,17.62
2023-01-17T15:20:06.020Z,20.37
2023-01-17T15:22:38.926Z,22.22
2023-01-17T15:25:16.214Z,23.45
2023-01-17T15:27:49.275Z,21.68
2023-01-17T15:30:24.150Z,19.17
2023-01-17T15:32:57.220Z,20.60
2023-01-17T15:35:30.100Z,18.42
2023-01-17T15:38:03.801Z,16.87
2023-01-17T15:40:43.139Z,18.87
2023-01-17T15:43:20.501Z,18.67
2023-01-17T15:45:58.329Z,18.90
2023-01-17T15:48:41.635Z,18.73
2023-01-17T15:51:16.573Z,19.30
2023-01-17T15:53:49.513Z,18.95
2023-01-17T15:56:27.488Z,22.32
2023-01-17T15:59:30.654Z,19.37
2023-01-17T16:02:03.605Z,20.20
2023-01-17T16:04:38.448Z,18.70
2023-01-17T16:07:17.492Z,18.40
2023-01-17T16:09:51.058Z,20.12
2023-01-17T16:12:24.450Z,19.23
2023-01-17T16:15:11.145Z,17.65
2023-01-17T16:17:32.882Z,17.60
2023-01-17T16:20:09.975Z,18.42
2023-01-17T16:22:44.154Z,19.55
2023-01-17T16:30:26.060Z,17.97
2023-01-17T16:33:00.175Z,18.95
2023-01-17T16:35:35.220Z,23.70
2023-01-17T16:38:11.919Z,20.55
2023-01-17T16:40:46.673Z,20.48
2023-01-17T16:43:21.664Z,19.10
2023-01-17T16:45:56.072Z,18.45
2023-01-17T16:51:01.428Z,19.48
2023-01-17T16:53:34.663Z,18.32
2023-01-17T16:56:14.954Z,18.50
2023-01-17T16:58:48.240Z,19.23
2023-01-17T17:01:23.040Z,18.63
2023-01-17T17:03:56.985Z,18.90
2023-01-17T17:09:04.355Z,19.37
2023-01-17T17:11:38.086Z,17.82
2023-01-17T17:14:11.214Z,19.82
2023-01-17T17:16:44.779Z,19.27
2023-01-17T17:19:19.747Z,18.92
2023-01-17T17:21:52.334Z,17.35
2023-01-17T17:24:25.405Z,18.37
2023-01-17T17:26:58.859Z,17.37
2023-01-17T17:29:31.639Z,19.07
2023-01-17T17:32:04.645Z,18.65
2023-01-17T17:34:39.491Z,19.90
2023-01-17T17:37:12.670Z,18.40
2023-01-17T17:39:47.419Z,22.25
2023-01-17T17:42:20.983Z,18.83
2023-01-17T17:44:53.911Z,20.95
2023-01-17T17:47:27.522Z,21.82
2023-01-17T17:50:00.574Z,17.82
2023-01-17T17:52:34.000Z,17.50
2023-01-17T17:55:08.498Z,18.30
2023-01-17T17:57:42.089Z,19.27
2023-01-17T18:00:15.872Z,19.92
2023-01-17T18:02:49.057Z,19.37
2023-01-17T18:05:22.088Z,19.52
2023-01-17T18:07:56.057Z,20.55
2023-01-17T18:10:30.027Z,20.25
2023-01-17T18:13:03.646Z,21.12
2023-01-17T18:15:36.654Z,20.55
2023-01-17T18:18:09.675Z,20.97
2023-01-17T18:20:42.648Z,21.27
2023-01-17T18:23:16.128Z,20.80
2023-01-17T18:25:49.412Z,19.85
2023-01-17T18:28:22.396Z,18.43
2023-01-17T18:30:55.572Z,18.25
2023-01-17T18:33:28.493Z,18.03
2023-01-17T18:36:03.281Z,17.90
2023-01-17T18:38:42.807Z,19.45
2023-01-17T18:41:22.825Z,20.00
2023-01-17T18:43:57.297Z,18.87
2023-01-17T18:46:31.945Z,17.55
2023-01-17T18:49:05.666Z,18.40
2023-01-17T18:51:38.683Z,19.05
2023-01-17T18:54:11.455Z,17.12
2023-01-17T18:56:44.326Z,19.20
2023-01-17T18:59:21.855Z,19.35
2023-01-17T19:01:55.362Z,17.07
2023-01-17T19:04:28.984Z,18.32
2023-01-17T19:07:01.916Z,19.45
2023-01-17T19:09:35.414Z,19.07
2023-01-17T19:12:08.504Z,18.27
2023-01-17T19:14:41.978Z,20.00
2023-01-17T19:17:14.742Z,19.70
2023-01-17T19:19:47.856Z,18.45
2023-01-17T19:22:21.923Z,18.87
2023-01-17T19:24:55.149Z,17.25
2023-01-17T19:27:28.027Z,17.20
2023-01-17T19:30:00.964Z,19.00
2023-01-17T19:32:34.144Z,18.33
2023-01-17T19:35:09.466Z,17.80
2023-01-17T19:37:48.396Z,17.15
2023-01-17T19:40:22.215Z,17.27
2023-01-17T19:42:56.320Z,18.77
2023-01-17T19:45:29.479Z,17.65
2023-01-17T19:48:02.360Z,19.12
2023-01-17T19:50:35.897Z,19.17
2023-01-17T19:53:09.447Z,18.27
2023-01-17T19:55:42.443Z,18.35
2023-01-17T19:58:15.575Z,18.40
2023-01-17T20:00:48.822Z,17.35
2023-01-17T20:03:22.813Z,17.55
2023-01-17T20:11:16.390Z,18.45
2023-01-17T20:13:53.473Z,18.12
2023-01-17T20:16:29.409Z,16.87
2023-01-17T20:19:03.019Z,17.87
2023-01-17T20:21:36.036Z,17.95
2023-01-17T20:24:11.461Z,18.02
2023-01-17T20:26:45.149Z,15.68
2023-01-17T20:29:19.250Z,16.30
2023-01-17T20:31:53.449Z,16.97
2023-01-17T20:34:26.529Z,16.45
2023-01-17T20:36:59.688Z,17.17
2023-01-17T20:39:33.063Z,17.27
2023-01-17T20:42:05.973Z,17.40
2023-01-17T20:44:39.021Z,17.17
2023-01-17T20:47:12.150Z,17.07
2023-01-17T20:49:45.118Z,17.23
2023-01-17T20:52:18.470Z,16.17
2023-01-17T20:54:51.974Z,16.87
2023-01-17T20:57:25.284Z,16.70
2023-01-17T20:59:58.025Z,15.63
2023-01-17T21:02:30.911Z,17.07
2023-01-17T21:05:05.273Z,17.62
2023-01-17T21:07:38.697Z,17.67
2023-01-17T21:10:13.115Z,16.52
2023-01-17T21:12:47.074Z,18.20
2023-01-17T21:15:20.499Z,17.98
2023-01-17T21:17:53.891Z,17.23
2023-01-17T21:20:27.609Z,16.57
2023-01-17T21:25:33.489Z,16.00
2023-01-17T21:28:06.782Z,16.73
2023-01-17T21:30:39.727Z,17.32
2023-01-17T21:33:13.539Z,17.15
2023-01-17T21:35:46.414Z,17.35
2023-01-17T21:38:19.877Z,16.80
2023-01-17T21:40:54.516Z,17.82
2023-01-17T21:43:27.246Z,16.05
2023-01-17T21:46:05.309Z,18.30
2023-01-17T21:48:44.326Z,17.35
2023-01-17T21:51:17.610Z,15.78
2023-01-17T21:53:50.736Z,16.80
2023-01-17T21:56:40.977Z,18.85
2023-01-17T21:59:13.659Z,17.42
2023-01-17T22:01:46.897Z,17.35
2023-01-17T22:04:20.235Z,16.95
2023-01-17T22:06:53.748Z,17.52
2023-01-17T22:09:26.593Z,17.02
2023-01-17T22:11:59.412Z,18.05
2023-01-17T22:14:32.829Z,19.00
2023-01-17T22:17:05.989Z,19.45
2023-01-17T22:19:38.860Z,19.15
2023-01-17T22:22:12.381Z,17.63
2023-01-17T22:24:45.256Z,16.73
2023-01-17T22:27:18.173Z,16.57
2023-01-17T22:29:51.572Z,17.05
2023-01-17T22:32:25.220Z,16.10
2023-01-17T22:34:58.158Z,17.55
2023-01-17T22:37:31.326Z,17.92
2023-01-17T22:40:06.077Z,17.90
2023-01-17T22:42:39.423Z,18.80
2023-01-17T22:45:14.001Z,17.92
2023-01-17T22:47:46.706Z,18.55
2023-01-17T22:50:20.477Z,20.00
2023-01-17T22:52:53.687Z,19.02
2023-01-17T22:55:26.398Z,17.85
2023-01-17T22:57:59.101Z,17.80
2023-01-17T23:00:31.814Z,19.42
2023-01-17T23:03:06.525Z,18.25
2023-01-17T23:05:41.725Z,19.27
2023-01-17T23:08:14.997Z,19.45
2023-01-17T23:11:05.772Z,18.77
2023-01-17T23:13:40.248Z,19.00
2023-01-17T23:19:21.376Z,18.67
2023-01-17T23:22:18.616Z,17.65
2023-01-17T23:25:06.870Z,18.60
2023-01-17T23:28:01.018Z,20.65
2023-01-17T23:30:37.657Z,18.67
2023-01-17T23:33:13.400Z,19.70
2023-01-17T23:35:47.570Z,18.32
2023-01-17T23:41:26.487Z,19.65
2023-01-17T23:44:00.106Z,20.25
2023-01-17T23:49:06.232Z,19.62
2023-01-17T23:51:39.279Z,18.77
2023-01-17T23:54:12.846Z,20.08
2023-01-17T23:56:45.639Z,18.70
2023-01-17T23:59:19.282Z,15.40
